createdAt,value
2019-04-30T00:01:28.872Z,8.46
2019-04-30T00:04:06.090Z,8.43
2019-04-30T00:06:39.457Z,8.52
2019-04-30T00:09:15.121Z,8.49
2019-04-30T00:11:57.968Z,8.42
2019-04-30T00:14:25.050Z,8.40
2019-04-30T00:17:01.125Z,8.43
2019-04-30T00:19:32.133Z,8.40
2019-04-30T00:22:09.452Z,8.25
2019-04-30T00:24:46.728Z,8.15
2019-04-30T00:27:29.932Z,8.09
2019-04-30T00:30:00.252Z,8.05
2019-04-30T00:32:30.369Z,8.04
2019-04-30T00:35:00.598Z,8.13
2019-04-30T00:37:31.654Z,8.22
2019-04-30T00:40:01.863Z,8.22
2019-04-30T00:42:32.522Z,8.15
2019-04-30T00:45:06.645Z,8.05
2019-04-30T00:47:35.231Z,8.04
2019-04-30T00:50:06.011Z,7.96
2019-04-30T00:52:37.373Z,7.98
2019-04-30T00:55:09.132Z,8.10
2019-04-30T00:57:43.642Z,8.16
2019-04-30T01:00:19.635Z,8.07
2019-04-30T01:03:20.693Z,7.97
2019-04-30T01:05:51.816Z,7.92
2019-04-30T01:08:27.155Z,7.76
2019-04-30T01:10:55.624Z,7.79
2019-04-30T01:13:29.040Z,7.81
2019-04-30T01:15:59.337Z,7.94
2019-04-30T01:18:32.070Z,8.01
2019-04-30T01:21:02.965Z,7.97
2019-04-30T01:23:35.255Z,7.97
2019-04-30T01:26:05.950Z,8.00
2019-04-30T01:28:36.252Z,7.97
2019-04-30T01:31:08.935Z,7.95
2019-04-30T01:33:39.373Z,7.90
2019-04-30T01:36:13.351Z,7.86
2019-04-30T01:38:44.884Z,7.94
2019-04-30T01:41:15.657Z,7.85
2019-04-30T01:43:45.875Z,7.92
2019-04-30T01:46:16.340Z,7.97
2019-04-30T01:48:50.512Z,8.01
2019-04-30T01:51:21.738Z,8.08
2019-04-30T01:53:52.346Z,8.11
2019-04-30T01:56:44.266Z,8.11
2019-04-30T01:59:19.094Z,8.11
2019-04-30T02:01:49.604Z,8.14
2019-04-30T02:04:19.931Z,8.14
2019-04-30T02:06:50.217Z,8.19
2019-04-30T02:09:21.498Z,8.22
2019-04-30T02:11:52.859Z,8.21
2019-04-30T02:14:23.115Z,8.19
2019-04-30T02:16:53.321Z,8.18
2019-04-30T02:19:23.600Z,8.15
2019-04-30T02:21:54.584Z,8.03
2019-04-30T02:24:25.177Z,7.87
2019-04-30T02:26:55.392Z,7.77
2019-04-30T02:29:25.959Z,7.67
2019-04-30T02:31:57.059Z,7.67
2019-04-30T02:34:42.203Z,7.58
2019-04-30T02:37:14.184Z,7.61
2019-04-30T02:39:44.457Z,7.71
2019-04-30T02:42:14.795Z,7.80
2019-04-30T02:44:45.610Z,7.85
2019-04-30T02:47:16.957Z,7.90
2019-04-30T02:49:50.017Z,7.93
2019-04-30T02:52:20.009Z,7.93
2019-04-30T02:54:51.515Z,7.92
2019-04-30T02:57:23.419Z,7.89
2019-04-30T03:00:10.601Z,7.87
2019-04-30T03:02:40.804Z,7.72
2019-04-30T03:05:13.625Z,7.63
2019-04-30T03:07:44.375Z,7.64
2019-04-30T03:10:15.064Z,7.62
2019-04-30T03:12:45.314Z,7.53
2019-04-30T03:15:15.505Z,7.58
2019-04-30T03:18:13.774Z,7.57
2019-04-30T03:21:06.100Z,7.57
2019-04-30T03:23:36.249Z,7.56
2019-04-30T03:26:06.439Z,7.56
2019-04-30T03:28:39.469Z,7.57
2019-04-30T03:31:12.561Z,7.59
2019-04-30T03:33:42.405Z,7.59
2019-04-30T03:36:13.485Z,7.58
2019-04-30T03:38:43.698Z,7.61
2019-04-30T03:41:13.880Z,7.54
2019-04-30T03:43:44.501Z,7.43
2019-04-30T03:46:14.702Z,7.41
2019-04-30T03:48:44.917Z,7.45
2019-04-30T03:51:15.441Z,7.53
2019-04-30T03:53:50.085Z,7.59
2019-04-30T03:56:22.834Z,7.64
2019-04-30T03:58:52.023Z,7.66
2019-04-30T04:01:34.304Z,7.72
2019-04-30T04:04:10.410Z,7.78
2019-04-30T04:06:44.261Z,7.82
2019-04-30T04:09:30.119Z,7.82
2019-04-30T04:12:20.428Z,7.82
2019-04-30T04:14:51.404Z,7.80
2019-04-30T04:17:21.904Z,7.76
2019-04-30T04:19:52.174Z,7.70
2019-04-30T04:22:24.807Z,7.75
2019-04-30T04:24:55.164Z,7.77
2019-04-30T04:27:25.382Z,7.84
2019-04-30T04:29:56.078Z,7.89
2019-04-30T04:32:26.326Z,7.82
2019-04-30T04:34:59.913Z,7.80
2019-04-30T04:37:30.207Z,7.82
2019-04-30T04:40:01.167Z,7.88
2019-04-30T04:42:33.032Z,7.93
2019-04-30T04:45:03.762Z,7.97
2019-04-30T04:47:34.399Z,7.90
2019-04-30T04:50:04.986Z,7.95
2019-04-30T04:52:35.555Z,8.05
2019-04-30T04:55:06.072Z,8.05
2019-04-30T04:57:36.476Z,8.08
2019-04-30T05:00:10.219Z,8.19
2019-04-30T05:02:49.835Z,8.31
2019-04-30T05:05:21.474Z,8.33
2019-04-30T05:07:54.260Z,8.43
2019-04-30T05:10:24.825Z,8.54
2019-04-30T05:12:55.438Z,8.64
2019-04-30T05:15:25.906Z,8.61
2019-04-30T05:17:56.616Z,8.74
2019-04-30T05:20:26.821Z,8.85
2019-04-30T05:22:58.529Z,8.91
2019-04-30T05:25:29.614Z,8.95
2019-04-30T05:28:00.006Z,9.02
2019-04-30T05:30:30.411Z,9.10
2019-04-30T05:33:00.659Z,9.17
2019-04-30T05:35:31.211Z,9.27
2019-04-30T05:38:03.659Z,9.32
2019-04-30T05:40:34.269Z,9.43
2019-04-30T05:43:04.516Z,9.52
2019-04-30T05:45:35.845Z,9.59
2019-04-30T05:48:06.025Z,9.65
2019-04-30T05:50:36.579Z,9.77
2019-04-30T05:53:08.922Z,9.90
2019-04-30T05:55:40.298Z,10.03
2019-04-30T05:58:10.559Z,10.18
2019-04-30T06:00:41.940Z,10.28
2019-04-30T06:03:12.255Z,10.36
2019-04-30T06:05:42.449Z,10.36
2019-04-30T06:08:16.690Z,10.52
2019-04-30T06:10:55.766Z,10.64
2019-04-30T06:13:32.053Z,10.82
2019-04-30T06:16:15.057Z,10.96
2019-04-30T06:18:45.270Z,11.05
2019-04-30T06:21:15.496Z,11.16
2019-04-30T06:23:45.701Z,11.27
2019-04-30T06:26:16.560Z,11.29
2019-04-30T06:28:46.777Z,11.41
2019-04-30T06:31:19.723Z,11.52
2019-04-30T06:33:48.955Z,11.58
2019-04-30T06:36:19.347Z,11.72
2019-04-30T06:38:49.536Z,11.85
2019-04-30T06:41:20.514Z,11.94
2019-04-30T06:43:51.372Z,12.02
2019-04-30T06:46:21.953Z,12.21
2019-04-30T06:48:52.240Z,12.27
2019-04-30T06:51:23.140Z,12.25
2019-04-30T06:53:53.375Z,12.45
2019-04-30T06:56:23.585Z,12.73
2019-04-30T06:58:53.846Z,12.94
2019-04-30T07:01:26.679Z,13.03
2019-04-30T07:03:59.226Z,13.03
2019-04-30T07:06:31.903Z,13.09
2019-04-30T07:09:26.734Z,13.10
2019-04-30T07:12:25.400Z,13.35
2019-04-30T07:14:49.716Z,13.51
2019-04-30T07:17:20.164Z,13.60
2019-04-30T07:19:56.380Z,13.81
2019-04-30T07:22:36.619Z,13.91
2019-04-30T07:24:54.716Z,14.06
2019-04-30T07:27:24.919Z,14.15
2019-04-30T07:29:55.163Z,14.38
2019-04-30T07:32:25.957Z,14.51
2019-04-30T07:34:56.127Z,14.54
2019-04-30T07:37:28.981Z,14.73
2019-04-30T07:39:59.098Z,14.91
2019-04-30T07:42:29.603Z,14.96
2019-04-30T07:45:00.839Z,15.02
2019-04-30T07:47:31.240Z,15.15
2019-04-30T07:50:01.927Z,15.15
2019-04-30T07:52:34.432Z,15.35
2019-04-30T07:55:04.595Z,15.52
2019-04-30T07:57:34.796Z,15.47
2019-04-30T08:00:05.422Z,15.52
2019-04-30T08:02:43.516Z,15.52
2019-04-30T08:05:31.542Z,15.53
2019-04-30T08:08:16.750Z,15.62
2019-04-30T08:10:33.848Z,15.62
2019-04-30T08:13:10.516Z,15.84
2019-04-30T08:15:36.843Z,16.07
2019-04-30T08:18:08.717Z,15.94
2019-04-30T08:20:39.369Z,15.96
2019-04-30T08:23:20.119Z,16.01
2019-04-30T08:25:41.825Z,16.04
2019-04-30T08:28:13.204Z,16.22
2019-04-30T08:30:44.504Z,16.27
2019-04-30T08:33:14.628Z,16.33
2019-04-30T08:35:44.893Z,16.52
2019-04-30T08:38:15.111Z,16.61
2019-04-30T08:40:55.642Z,16.53
2019-04-30T08:43:17.676Z,16.63
2019-04-30T08:45:48.913Z,16.80
2019-04-30T08:48:19.219Z,17.01
2019-04-30T08:50:50.035Z,17.41
2019-04-30T08:53:29.772Z,17.63
2019-04-30T08:55:52.666Z,17.97
2019-04-30T08:58:23.511Z,18.29
2019-04-30T09:00:53.755Z,18.55
2019-04-30T09:03:24.322Z,18.76
2019-04-30T09:06:09.309Z,19.01
2019-04-30T09:08:41.513Z,18.97
2019-04-30T09:11:22.482Z,18.77
2019-04-30T09:13:43.626Z,18.73
2019-04-30T09:16:14.269Z,18.83
2019-04-30T09:18:44.487Z,18.82
2019-04-30T09:21:15.990Z,18.66
2019-04-30T09:23:51.915Z,18.68
2019-04-30T09:26:19.062Z,19.13
2019-04-30T09:28:49.573Z,19.52
2019-04-30T09:31:20.203Z,19.57
2019-04-30T09:33:50.490Z,19.81
2019-04-30T09:36:21.021Z,20.39
2019-04-30T09:38:51.189Z,20.38
2019-04-30T09:41:21.450Z,21.05
2019-04-30T09:43:52.194Z,21.02
2019-04-30T09:46:27.055Z,21.47
2019-04-30T09:48:54.574Z,21.07
2019-04-30T09:51:25.133Z,21.08
2019-04-30T09:53:59.766Z,21.07
2019-04-30T09:56:29.401Z,21.12
2019-04-30T09:58:59.894Z,21.65
2019-04-30T10:01:32.739Z,21.72
2019-04-30T10:04:02.864Z,20.66
2019-04-30T10:06:39.824Z,20.41
2019-04-30T10:09:09.701Z,20.33
2019-04-30T10:12:04.818Z,20.80
2019-04-30T10:14:35.022Z,21.33
2019-04-30T10:17:23.308Z,21.77
2019-04-30T10:19:53.855Z,22.14
2019-04-30T10:22:24.071Z,22.11
2019-04-30T10:24:54.614Z,22.87
2019-04-30T10:27:25.784Z,22.47
2019-04-30T10:29:55.989Z,22.53
2019-04-30T10:32:26.712Z,22.06
2019-04-30T10:34:57.376Z,22.05
2019-04-30T10:37:28.723Z,22.44
2019-04-30T10:39:59.850Z,22.81
2019-04-30T10:42:30.530Z,23.47
2019-04-30T10:45:01.197Z,23.18
2019-04-30T10:47:32.743Z,23.12
2019-04-30T10:50:03.996Z,22.73
2019-04-30T10:52:34.373Z,23.21
2019-04-30T10:55:09.403Z,22.47
2019-04-30T10:57:39.693Z,22.11
2019-04-30T11:00:12.582Z,22.23
2019-04-30T11:02:42.883Z,21.85
2019-04-30T11:05:13.682Z,22.08
2019-04-30T11:07:43.949Z,22.25
2019-04-30T11:10:14.554Z,22.11
2019-04-30T11:12:44.797Z,21.87
2019-04-30T11:15:15.428Z,22.00
2019-04-30T11:17:46.018Z,21.78
2019-04-30T11:20:21.811Z,22.06
2019-04-30T11:22:48.752Z,23.42
2019-04-30T11:25:20.412Z,24.34
2019-04-30T11:27:51.465Z,24.57
2019-04-30T11:30:24.348Z,24.03
2019-04-30T11:32:55.184Z,24.06
2019-04-30T11:35:29.699Z,23.78
2019-04-30T11:38:00.627Z,24.53
2019-04-30T11:40:37.131Z,24.09
2019-04-30T11:43:04.689Z,23.68
2019-04-30T11:46:22.396Z,24.28
2019-04-30T11:48:52.635Z,25.38
2019-04-30T11:51:22.823Z,25.60
2019-04-30T11:53:53.346Z,24.05
2019-04-30T11:56:23.986Z,22.82
2019-04-30T11:58:55.121Z,22.63
2019-04-30T12:01:28.683Z,21.42
2019-04-30T12:03:59.850Z,22.12
2019-04-30T12:06:30.212Z,22.07
2019-04-30T12:09:13.214Z,22.21
2019-04-30T12:11:43.905Z,22.07
2019-04-30T12:14:14.379Z,22.30
2019-04-30T12:16:44.655Z,22.11
2019-04-30T12:19:14.842Z,21.32
2019-04-30T12:21:45.029Z,22.09
2019-04-30T12:24:15.293Z,22.46
2019-04-30T12:26:45.953Z,22.13
2019-04-30T12:29:18.982Z,22.19
2019-04-30T12:31:49.091Z,22.33
2019-04-30T12:34:19.384Z,22.15
2019-04-30T12:36:49.724Z,22.01
2019-04-30T12:39:20.927Z,21.88
2019-04-30T12:41:51.643Z,21.10
2019-04-30T12:44:21.869Z,21.08
2019-04-30T12:46:52.240Z,21.40
2019-04-30T12:49:22.429Z,21.36
2019-04-30T12:52:12.037Z,21.72
2019-04-30T12:54:52.542Z,22.32
2019-04-30T12:57:30.154Z,23.32
2019-04-30T13:00:01.644Z,23.03
2019-04-30T13:02:32.076Z,23.29
2019-04-30T13:05:02.774Z,22.98
2019-04-30T13:07:33.739Z,21.99
2019-04-30T13:10:06.948Z,21.83
2019-04-30T13:12:38.311Z,21.73
2019-04-30T13:15:10.943Z,21.84
2019-04-30T13:17:41.189Z,21.18
2019-04-30T13:20:18.574Z,20.70
2019-04-30T13:22:44.464Z,20.27
2019-04-30T13:25:14.647Z,20.09
2019-04-30T13:27:48.808Z,20.22
2019-04-30T13:30:23.215Z,20.25
2019-04-30T13:33:21.389Z,20.17
2019-04-30T13:35:51.595Z,20.32
2019-04-30T13:38:49.037Z,20.33
2019-04-30T13:41:37.301Z,20.30
2019-04-30T13:44:13.956Z,20.35
2019-04-30T13:46:44.616Z,20.18
2019-04-30T13:49:15.386Z,20.30
2019-04-30T13:51:46.023Z,20.70
2019-04-30T13:54:16.345Z,20.82
2019-04-30T13:56:46.612Z,20.65
2019-04-30T13:59:16.984Z,20.59
2019-04-30T14:01:48.919Z,20.64
2019-04-30T14:04:38.429Z,20.57
2019-04-30T14:07:30.487Z,20.58
2019-04-30T14:10:00.676Z,20.78
2019-04-30T14:12:32.551Z,20.48
2019-04-30T14:15:03.324Z,20.44
2019-04-30T14:17:34.095Z,20.49
2019-04-30T14:20:05.562Z,20.65
2019-04-30T14:22:36.837Z,20.78
2019-04-30T14:25:07.319Z,20.75
2019-04-30T14:27:48.928Z,20.77
2019-04-30T14:30:10.317Z,20.82
2019-04-30T14:32:41.665Z,20.65
2019-04-30T14:35:12.028Z,20.62
2019-04-30T14:37:42.312Z,20.60
2019-04-30T14:40:14.184Z,20.54
2019-04-30T14:42:51.349Z,20.60
2019-04-30T14:45:26.942Z,20.59
2019-04-30T14:48:03.835Z,20.71
2019-04-30T14:50:34.816Z,20.74
2019-04-30T14:53:33.934Z,20.73
2019-04-30T14:56:12.638Z,20.56
2019-04-30T14:59:18.786Z,20.57
2019-04-30T15:01:55.882Z,20.62
2019-04-30T15:04:26.410Z,20.60
2019-04-30T15:06:58.791Z,20.47
2019-04-30T15:09:29.633Z,20.51
2019-04-30T15:11:59.841Z,20.43
2019-04-30T15:14:30.168Z,20.36
2019-04-30T15:17:00.524Z,20.31
2019-04-30T15:19:31.819Z,20.30
2019-04-30T15:22:04.026Z,20.50
2019-04-30T15:24:36.183Z,20.78
2019-04-30T15:27:06.558Z,20.97
2019-04-30T15:29:36.882Z,21.06
2019-04-30T15:32:08.644Z,21.11
2019-04-30T15:34:42.255Z,21.45
2019-04-30T15:37:19.122Z,22.05
2019-04-30T15:39:45.490Z,22.53
2019-04-30T15:42:16.138Z,23.12
2019-04-30T15:44:46.833Z,23.35
2019-04-30T15:47:19.085Z,22.97
2019-04-30T15:49:49.527Z,22.73
2019-04-30T15:52:20.105Z,22.33
2019-04-30T15:54:51.246Z,21.73
2019-04-30T15:57:21.985Z,21.36
2019-04-30T15:59:53.179Z,20.97
2019-04-30T16:02:28.873Z,20.64
2019-04-30T16:05:27.068Z,20.48
2019-04-30T16:08:16.380Z,20.42
2019-04-30T16:11:00.438Z,20.34
2019-04-30T16:13:34.728Z,20.34
2019-04-30T16:16:05.034Z,20.08
2019-04-30T16:18:45.979Z,20.04
2019-04-30T16:21:19.293Z,19.90
2019-04-30T16:23:49.249Z,19.70
2019-04-30T16:26:19.772Z,19.64
2019-04-30T16:28:50.011Z,19.60
2019-04-30T16:31:20.561Z,19.51
2019-04-30T16:33:50.968Z,19.42
2019-04-30T16:36:21.600Z,19.31
2019-04-30T16:38:51.799Z,19.22
2019-04-30T16:41:31.095Z,19.21
2019-04-30T16:43:54.536Z,19.10
2019-04-30T16:46:24.725Z,19.02
2019-04-30T16:48:55.090Z,18.99
2019-04-30T16:51:28.860Z,18.93
2019-04-30T16:53:59.168Z,18.81
2019-04-30T16:56:29.460Z,18.79
2019-04-30T16:59:00.139Z,18.81
2019-04-30T17:01:31.277Z,18.78
2019-04-30T17:04:19.192Z,18.85
2019-04-30T17:06:56.152Z,18.83
2019-04-30T17:09:38.694Z,18.77
2019-04-30T17:12:21.203Z,18.69
2019-04-30T17:15:09.554Z,18.60
2019-04-30T17:17:41.046Z,18.57
2019-04-30T17:20:11.718Z,18.53
2019-04-30T17:22:42.105Z,18.54
2019-04-30T17:25:13.050Z,18.50
2019-04-30T17:27:43.400Z,18.39
2019-04-30T17:30:13.885Z,18.42
2019-04-30T17:32:44.119Z,18.42
2019-04-30T17:35:15.263Z,18.41
2019-04-30T17:37:45.576Z,18.38
2019-04-30T17:40:15.854Z,18.28
2019-04-30T17:42:46.181Z,18.16
2019-04-30T17:45:16.870Z,18.10
2019-04-30T17:47:47.211Z,18.00
2019-04-30T17:50:18.847Z,17.91
2019-04-30T17:52:49.272Z,17.79
2019-04-30T17:55:19.618Z,17.72
2019-04-30T17:57:49.841Z,17.71
2019-04-30T18:00:22.381Z,17.62
2019-04-30T18:02:52.712Z,17.51
2019-04-30T18:05:23.142Z,17.48
2019-04-30T18:07:53.816Z,17.39
2019-04-30T18:10:24.679Z,17.34
2019-04-30T18:12:55.290Z,17.19
2019-04-30T18:15:27.310Z,17.18
2019-04-30T18:18:15.538Z,17.10
2019-04-30T18:20:56.836Z,17.03
2019-04-30T18:23:50.170Z,16.96
2019-04-30T18:26:22.063Z,16.95
2019-04-30T18:28:52.942Z,16.86
2019-04-30T18:31:23.717Z,16.79
2019-04-30T18:33:54.270Z,16.74
2019-04-30T18:36:24.937Z,16.70
2019-04-30T18:38:55.722Z,16.63
2019-04-30T18:41:26.418Z,16.60
2019-04-30T18:43:56.676Z,16.63
2019-04-30T18:46:29.194Z,16.57
2019-04-30T18:48:59.257Z,16.55
2019-04-30T18:51:36.530Z,16.49
2019-04-30T18:54:02.497Z,16.44
2019-04-30T18:56:33.291Z,16.39
2019-04-30T18:59:03.656Z,16.25
2019-04-30T19:01:33.855Z,16.13
2019-04-30T19:04:04.261Z,16.07
2019-04-30T19:06:34.943Z,15.88
2019-04-30T19:09:29.660Z,15.83
2019-04-30T19:12:11.224Z,15.69
2019-04-30T19:15:00.895Z,15.67
2019-04-30T19:17:49.738Z,15.55
2019-04-30T19:20:30.024Z,15.52
2019-04-30T19:23:00.532Z,15.43
2019-04-30T19:25:30.961Z,15.41
2019-04-30T19:28:11.340Z,15.34
2019-04-30T19:30:34.640Z,15.28
2019-04-30T19:33:05.371Z,15.17
2019-04-30T19:35:36.136Z,15.07
2019-04-30T19:38:09.203Z,14.95
2019-04-30T19:40:39.786Z,14.87
2019-04-30T19:43:10.377Z,14.73
2019-04-30T19:45:41.128Z,14.63
2019-04-30T19:48:11.423Z,14.54
2019-04-30T19:50:41.699Z,14.42
2019-04-30T19:53:11.922Z,14.34
2019-04-30T19:55:42.207Z,14.25
2019-04-30T19:58:25.293Z,14.16
2019-04-30T20:00:45.768Z,14.03
2019-04-30T20:03:15.990Z,14.03
2019-04-30T20:05:46.574Z,13.85
2019-04-30T20:08:17.034Z,13.75
2019-04-30T20:10:47.248Z,13.75
2019-04-30T20:13:30.899Z,13.75
2019-04-30T20:15:50.023Z,13.54
2019-04-30T20:18:20.362Z,13.37
2019-04-30T20:20:52.873Z,13.23
2019-04-30T20:23:23.610Z,13.23
2019-04-30T20:25:53.828Z,12.99
2019-04-30T20:28:24.114Z,12.99
2019-04-30T20:30:54.917Z,12.87
2019-04-30T20:33:25.250Z,12.79
2019-04-30T20:35:55.471Z,12.69
2019-04-30T20:38:44.830Z,12.56
2019-04-30T20:41:15.487Z,12.43
2019-04-30T20:43:45.939Z,12.28
2019-04-30T20:46:29.117Z,12.14
2019-04-30T20:48:49.182Z,12.01
2019-04-30T20:51:19.817Z,11.89
2019-04-30T20:53:50.090Z,11.78
2019-04-30T20:56:20.658Z,11.70
2019-04-30T20:58:57.466Z,11.59
2019-04-30T21:01:23.219Z,11.49
2019-04-30T21:03:53.690Z,11.38
2019-04-30T21:06:24.937Z,11.31
2019-04-30T21:08:55.208Z,11.24
2019-04-30T21:11:25.607Z,11.18
2019-04-30T21:13:56.390Z,11.09
2019-04-30T21:16:26.627Z,10.97
2019-04-30T21:18:58.098Z,10.86
2019-04-30T21:21:28.887Z,10.76
2019-04-30T21:23:59.236Z,10.71
2019-04-30T21:26:30.231Z,10.65
2019-04-30T21:29:11.106Z,10.60
2019-04-30T21:31:45.418Z,10.53
2019-04-30T21:34:21.835Z,10.45
2019-04-30T21:36:52.200Z,10.40
2019-04-30T21:39:22.526Z,10.40
2019-04-30T21:41:53.272Z,10.38
2019-04-30T21:44:24.214Z,10.28
2019-04-30T21:46:54.421Z,10.20
2019-04-30T21:49:25.116Z,10.11
2019-04-30T21:51:56.325Z,10.07
2019-04-30T21:54:28.323Z,10.01
2019-04-30T21:56:58.612Z,9.97
2019-04-30T21:59:30.437Z,9.91
2019-04-30T22:02:02.055Z,9.87
2019-04-30T22:04:32.626Z,9.84
2019-04-30T22:07:03.323Z,9.83
2019-04-30T22:09:35.270Z,9.83
2019-04-30T22:12:05.635Z,9.83
2019-04-30T22:14:36.249Z,9.83
2019-04-30T22:17:06.934Z,9.84
2019-04-30T22:19:37.463Z,9.84
2019-04-30T22:22:09.357Z,9.86
2019-04-30T22:24:40.102Z,9.90
2019-04-30T22:27:10.317Z,9.92
2019-04-30T22:29:42.262Z,9.98
2019-04-30T22:32:12.705Z,10.03
2019-04-30T22:34:43.507Z,10.03
2019-04-30T22:37:14.060Z,9.97
2019-04-30T22:39:50.139Z,9.89
2019-04-30T22:42:29.844Z,9.84
2019-04-30T22:45:00.952Z,9.77
2019-04-30T22:47:31.628Z,9.77
2019-04-30T22:50:01.872Z,9.75
2019-04-30T22:52:33.489Z,9.73
2019-04-30T22:55:05.208Z,9.70
2019-04-30T22:57:35.821Z,9.62
2019-04-30T23:00:13.803Z,9.58
2019-04-30T23:02:57.651Z,9.54
2019-04-30T23:05:27.979Z,9.49
2019-04-30T23:07:58.896Z,9.45
2019-04-30T23:10:29.254Z,9.43
2019-04-30T23:12:59.636Z,9.42
2019-04-30T23:15:29.846Z,9.42
2019-04-30T23:18:00.195Z,9.40
2019-04-30T23:20:31.884Z,9.41
2019-04-30T23:23:02.445Z,9.41
2019-04-30T23:25:33.038Z,9.39
2019-04-30T23:28:03.341Z,9.40
2019-04-30T23:30:33.897Z,9.42
2019-04-30T23:33:05.025Z,9.47
2019-04-30T23:35:39.552Z,9.51
2019-04-30T23:38:12.752Z,9.55
2019-04-30T23:40:51.557Z,9.55
2019-04-30T23:43:22.012Z,9.54
2019-04-30T23:45:52.920Z,9.53
2019-04-30T23:48:23.164Z,9.55
2019-04-30T23:50:54.081Z,9.57
2019-04-30T23:53:25.011Z,9.51
2019-04-30T23:55:55.660Z,9.53
2019-04-30T23:58:25.989Z,9.51
